Terminal Aerodrome Forecast
Issued by NWS Grand Forks, ND

Home | Current Version | Previous Version | Graphics & Text | Print | Product List | Glossary On
Versions: 1 2 3 4 5 6 7 8 9 10 11 12 13 14 15 16 17 18 19 20
508
FTUS43 KFGF 261603 AAD
TAFFAR
TAF AMD
KFAR 261603Z 2616/2712 26008KT P6SM BKN013
     FM261700 24008KT P6SM BKN018
     FM261900 25012KT P6SM BKN035
     FM270100 25006KT P6SM SCT200
     FM270500 VRB04KT P6SM SCT200=

USA.gov is the U.S. government's official web portal to all federal, state and local government web resources and services.